Time;durP1;ratioP1;P1;durP2;ratioP2;P2;SDS_P1;SDS_P2;PMS_P1;PMS_P2;Temp;Humidity;BMP_temperature;BMP_pressure;BME280_temperature;BME280_humidity;BME280_pressure;Samples;Min_cycle;Max_cycle;Signal;HPM_P1;HPM_P2
2022/09/19 00:00:08;;;;;;;886.30;831.45;;;;;;;14.07;56.64;99568.06;346827;28;1474;-81
2022/09/19 00:00:18;;;;;;;887.55;832.78;;;;;;;14.06;56.86;99569.84;346596;28;1488;-81
2022/09/19 00:00:29;;;;;;;888.97;833.93;;;;;;;14.09;56.99;99574.09;348013;28;1311;-81
2022/09/19 00:00:40;;;;;;;884.97;829.90;;;;;;;14.07;57.00;99571.56;347847;28;1326;-81
2022/09/19 00:00:51;;;;;;;884.30;829.13;;;;;;;14.06;56.72;99569.84;349639;28;1245;-81
2022/09/19 00:01:12;;;;;;;878.50;823.50;;;;;;;14.08;56.91;99581.16;345416;28;1461;-82
2022/09/19 00:01:24;;;;;;;877.05;822.75;;;;;;;14.07;56.94;99571.56;343654;28;1407;-81
2022/09/19 00:01:37;;;;;;;878.20;824.03;;;;;;;14.10;57.48;99576.66;345680;28;1306;-81
2022/09/19 00:01:47;;;;;;;883.55;828.85;;;;;;;14.09;56.72;99569.69;342859;28;1504;-81
2022/09/19 00:01:58;;;;;;;886.10;831.30;;;;;;;14.10;57.54;99571.38;341676;29;1250;-81
2022/09/19 00:02:08;;;;;;;889.50;834.47;;;;;;;14.08;57.16;99573.25;343094;28;1213;-81
2022/09/19 00:02:19;;;;;;;887.40;832.40;;;;;;;14.08;56.98;99572.41;342891;28;1207;-81
2022/09/19 00:02:29;;;;;;;881.58;827.00;;;;;;;14.09;57.06;99577.59;341437;29;1081;-81
2022/09/19 00:02:40;;;;;;;880.70;826.33;;;;;;;14.08;56.66;99567.16;341965;28;1234;-81
2022/09/19 00:02:50;;;;;;;875.58;821.47;;;;;;;14.11;57.31;99574.88;337271;29;1348;-81
2022/09/19 00:03:02;;;;;;;874.17;819.97;;;;;;;14.09;56.69;99572.31;341806;28;1547;-81
2022/09/19 00:03:12;;;;;;;866.10;812.00;;;;;;;14.07;56.57;99571.56;338765;29;1401;-81
2022/09/19 00:03:22;;;;;;;868.70;814.53;;;;;;;14.06;56.44;99576.91;341691;28;1544;-81
2022/09/19 00:03:33;;;;;;;874.97;820.47;;;;;;;14.07;56.67;99574.19;341541;29;1914;-81
2022/09/19 00:03:50;;;;;;;874.67;820.13;;;;;;;14.02;56.77;99568.34;339681;29;1472;-81
2022/09/19 00:04:03;;;;;;;871.38;817.08;;;;;;;14.02;56.68;99565.69;339412;29;2939;-81
2022/09/19 00:04:18;;;;;;;882.42;827.67;;;;;;;14.03;56.92;99570.03;337671;29;3037;-81
2022/09/19 00:04:31;;;;;;;887.28;832.42;;;;;;;14.05;56.55;99573.44;336060;29;1270;-82
2022/09/19 00:04:41;;;;;;;882.17;827.42;;;;;;;14.05;56.70;99573.44;339033;29;1549;-82
2022/09/19 00:04:52;;;;;;;877.42;822.83;;;;;;;14.03;56.83;99566.56;335937;29;1419;-81
2022/09/19 00:05:02;;;;;;;874.17;819.57;;;;;;;14.02;56.63;99570.13;332239;29;816;-81
2022/09/19 00:05:13;;;;;;;876.15;821.35;;;;;;;14.01;56.67;99566.63;339529;29;2029;-81
2022/09/19 00:05:24;;;;;;;872.15;817.58;;;;;;;14.00;56.80;99575.47;335994;29;1531;-81
2022/09/19 00:05:39;;;;;;;872.70;818.17;;;;;;;13.97;56.39;99573.00;333658;29;1355;-81
2022/09/19 00:05:49;;;;;;;877.85;823.33;;;;;;;13.94;56.53;99573.16;329855;29;1418;-81
2022/09/19 00:06:00;;;;;;;882.70;828.00;;;;;;;13.92;56.25;99575.03;334459;29;1494;-81
2022/09/19 00:06:11;;;;;;;881.95;827.33;;;;;;;13.90;56.42;99574.25;332430;29;1326;-81
2022/09/19 00:06:22;;;;;;;884.80;830.13;;;;;;;13.90;56.54;99574.25;328990;30;1218;-81
2022/09/19 00:06:35;;;;;;;878.83;824.28;;;;;;;13.88;56.75;99576.13;328570;30;1223;-81
2022/09/19 00:06:46;;;;;;;879.58;824.85;;;;;;;13.87;56.34;99575.28;320719;30;901;-81
2022/09/19 00:06:57;;;;;;;878.08;823.35;;;;;;;13.86;56.39;99573.59;320117;30;2055;-81
2022/09/19 00:07:08;;;;;;;884.70;829.73;;;;;;;13.84;56.79;99570.22;317746;30;2067;-81
2022/09/19 00:07:18;;;;;;;886.28;831.28;;;;;;;13.83;56.60;99567.69;314926;31;1218;-81
2022/09/19 00:07:28;;;;;;;888.60;833.50;;;;;;;13.83;56.90;99572.94;314728;31;2307;-81
2022/09/19 00:07:39;;;;;;;889.75;834.63;;;;;;;13.82;56.21;99571.25;313603;31;2325;-82
2022/09/19 00:07:49;;;;;;;885.47;830.53;;;;;;;13.82;56.42;99573.88;312381;31;1321;-82
2022/09/19 00:08:00;;;;;;;886.13;831.15;;;;;;;13.81;56.41;99574.81;316273;31;2191;-82
2022/09/19 00:08:10;;;;;;;879.43;824.57;;;;;;;13.83;56.45;99568.53;316630;31;1918;-81
2022/09/19 00:08:21;;;;;;;880.38;825.55;;;;;;;13.83;56.39;99572.94;311944;31;1303;-81
2022/09/19 00:08:31;;;;;;;874.20;819.57;;;;;;;13.83;56.00;99573.78;312314;31;1100;-81
2022/09/19 00:08:43;;;;;;;878.42;823.70;;;;;;;13.81;56.07;99565.13;314190;31;1652;-81
2022/09/19 00:08:54;;;;;;;884.05;828.88;;;;;;;13.87;56.05;99574.44;310874;31;3012;-81
2022/09/19 00:09:05;;;;;;;884.60;829.40;;;;;;;13.89;55.89;99575.19;311411;31;1421;-82
2022/09/19 00:09:18;;;;;;;886.83;831.65;;;;;;;13.89;55.95;99567.31;305850;32;1303;-82
2022/09/19 00:09:31;;;;;;;888.58;833.47;;;;;;;13.88;55.78;99570.88;305451;32;3235;-82
2022/09/19 00:09:41;;;;;;;889.20;834.40;;;;;;;13.85;56.06;99576.34;302762;32;3361;-82
2022/09/19 00:09:51;;;;;;;883.03;828.50;;;;;;;13.81;56.20;99572.16;296089;33;3118;-82
2022/09/19 00:10:02;;;;;;;884.73;830.13;;;;;;;13.79;55.94;99566.16;296634;33;957;-82
2022/09/19 00:10:12;;;;;;;883.55;829.08;;;;;;;13.81;56.28;99574.81;297440;32;3109;-82
2022/09/19 00:10:23;;;;;;;886.30;831.63;;;;;;;13.84;56.36;99570.22;297427;33;2042;-82
2022/09/19 00:10:40;;;;;;;885.88;831.28;;;;;;;13.86;56.06;99567.50;295665;33;1339;-82
2022/09/19 00:10:51;;;;;;;882.97;828.63;;;;;;;13.86;55.70;99567.50;296859;33;2564;-82
2022/09/19 00:11:02;;;;;;;881.40;826.90;;;;;;;13.87;55.78;99572.66;296384;33;1763;-82
2022/09/19 00:11:14;;;;;;;881.53;826.90;;;;;;;13.87;56.05;99572.66;296945;33;3545;-82
2022/09/19 00:11:25;;;;;;;884.15;829.50;;;;;;;13.84;55.84;99570.22;296191;33;4892;-82
2022/09/19 00:11:38;;;;;;;887.42;832.67;;;;;;;13.82;55.83;99571.25;291706;33;4339;-82
2022/09/19 00:11:49;;;;;;;892.72;837.72;;;;;;;13.79;56.13;99576.66;289693;34;1324;-82
2022/09/19 00:12:00;;;;;;;894.17;839.15;;;;;;;13.80;56.18;99568.69;285002;34;4812;-82
2022/09/19 00:12:11;;;;;;;888.72;833.88;;;;;;;13.78;56.22;99567.06;286188;34;4966;-82
2022/09/19 00:12:22;;;;;;;882.85;828.28;;;;;;;13.76;56.46;99568.94;286906;34;4674;-82
2022/09/19 00:12:32;;;;;;;883.55;828.80;;;;;;;13.76;56.59;99572.41;286712;34;1367;-82
2022/09/19 00:12:42;;;;;;;884.47;829.23;;;;;;;13.77;56.51;99568.00;288676;34;3025;-82
2022/09/19 00:12:55;;;;;;;885.28;829.95;;;;;;;13.75;56.35;99565.47;287914;34;2976;-81
2022/09/19 00:13:06;;;;;;;887.67;832.45;;;;;;;13.73;56.22;99571.72;281534;34;4155;-81
2022/09/19 00:13:17;;;;;;;882.47;827.35;;;;;;;13.72;56.43;99570.03;276591;35;2955;-82
2022/09/19 00:13:28;;;;;;;887.42;832.00;;;;;;;13.71;56.80;99565.72;279724;34;5523;-82
2022/09/19 00:13:47;;;;;;;888.60;833.13;;;;;;;13.72;56.50;99564.78;279490;35;7424;-82
2022/09/19 00:13:59;;;;;;;890.65;835.42;;;;;;;13.73;56.61;99566.47;273563;35;7353;-82
2022/09/19 00:14:14;;;;;;;890.60;835.50;;;;;;;13.72;56.87;99567.41;273865;35;7055;-82
2022/09/19 00:14:27;;;;;;;890.67;835.50;;;;;;;13.73;56.59;99572.59;275241;35;7267;-81
2022/09/19 00:14:37;;;;;;;890.50;835.67;;;;;;;13.73;56.70;99569.94;271562;36;6501;-81
2022/09/19 00:14:48;;;;;;;889.63;834.90;;;;;;;13.76;56.34;99568.94;272162;36;1359;-81
2022/09/19 00:14:58;;;;;;;890.17;835.00;;;;;;;13.77;56.61;99568.00;269899;36;4471;-81
2022/09/19 00:15:09;;;;;;;882.95;827.92;;;;;;;13.75;56.50;99561.97;268035;36;4600;-82
2022/09/19 00:15:22;;;;;;;878.80;824.05;;;;;;;13.75;56.55;99572.50;268500;36;1384;-82
2022/09/19 00:18:03;;;;;;;804.02;752.34;;;;;;;13.70;56.78;99582.41;2501191;27;20592;-81
2022/09/19 00:18:14;;;;;;;870.53;817.00;;;;;;;13.70;57.08;99575.38;351512;28;1309;-81
2022/09/19 00:18:24;;;;;;;870.70;816.92;;;;;;;13.68;56.77;99576.38;349209;28;1219;-81
2022/09/19 00:18:35;;;;;;;872.05;817.85;;;;;;;13.69;56.98;99578.94;348081;28;825;-81
2022/09/19 00:18:46;;;;;;;880.67;825.93;;;;;;;13.68;56.54;99571.13;346645;28;1233;-81
2022/09/19 00:18:58;;;;;;;883.05;828.25;;;;;;;13.70;56.83;99577.16;350805;28;1406;-81
2022/09/19 00:19:09;;;;;;;875.83;821.38;;;;;;;13.70;56.43;99571.91;349267;28;1287;-81
2022/09/19 00:19:20;;;;;;;873.63;819.40;;;;;;;13.71;56.57;99573.59;349805;28;1466;-81
2022/09/19 00:19:31;;;;;;;866.23;812.20;;;;;;;13.71;56.72;99573.59;349345;28;1264;-81
2022/09/19 00:19:41;;;;;;;870.30;816.10;;;;;;;13.73;56.88;99579.63;347967;28;1255;-80
2022/09/19 00:19:51;;;;;;;868.47;814.50;;;;;;;13.72;56.73;99578.78;346934;28;1210;-80
2022/09/19 00:20:02;;;;;;;872.70;818.47;;;;;;;13.71;56.83;99574.44;347210;28;726;-80
2022/09/19 00:20:13;;;;;;;877.80;823.25;;;;;;;13.69;56.91;99578.94;347038;28;870;-80
2022/09/19 00:20:23;;;;;;;880.87;826.17;;;;;;;13.67;56.85;99577.31;344433;28;1199;-80
2022/09/19 00:20:39;;;;;;;886.67;831.83;;;;;;;13.68;56.50;99576.38;348384;28;1230;-80
2022/09/19 00:20:50;;;;;;;879.80;825.42;;;;;;;13.68;56.18;99574.63;347580;28;2984;-81
2022/09/19 00:21:00;;;;;;;872.80;818.53;;;;;;;13.68;56.26;99579.03;349533;28;3037;-82
2022/09/19 00:21:11;;;;;;;878.13;823.37;;;;;;;13.68;56.57;99573.75;348035;28;1883;-82
2022/09/19 00:21:26;;;;;;;881.30;826.47;;;;;;;13.63;56.62;99569.59;346942;28;3089;-81
2022/09/19 00:21:38;;;;;;;880.72;826.17;;;;;;;13.64;56.46;99575.72;343859;28;1251;-82
2022/09/19 00:21:52;;;;;;;879.25;824.75;;;;;;;13.63;56.56;99574.84;350808;28;1458;-82
2022/09/19 00:22:03;;;;;;;877.30;823.08;;;;;;;13.61;56.32;99568.84;350721;28;1286;-82
2022/09/19 00:22:13;;;;;;;874.95;820.88;;;;;;;13.60;56.44;99567.13;347982;28;3582;-82
2022/09/19 00:22:23;;;;;;;879.73;825.37;;;;;;;13.61;56.40;99574.09;347683;28;1676;-82
2022/09/19 00:22:34;;;;;;;883.75;829.10;;;;;;;13.63;56.37;99577.50;348641;28;1203;-82
2022/09/19 00:24:45;;;;;;;882.07;827.47;;;;;;;13.64;56.31;99573.94;347974;28;1214;-82
2022/09/19 00:24:45;;;;;;;877.00;823.25;;;;;;;13.62;56.87;99573.16;343547;28;1171;-82
2022/09/19 00:24:55;;;;;;;879.55;825.65;;;;;;;13.62;56.84;99573.16;341000;29;1382;-81
2022/09/19 00:25:07;;;;;;;883.63;829.47;;;;;;;13.61;57.12;99579.34;337561;29;1242;-82
2022/09/19 00:25:17;;;;;;;883.78;829.55;;;;;;;13.58;56.92;99578.66;340632;29;1460;-82
2022/09/19 00:25:28;;;;;;;881.65;827.42;;;;;;;13.57;57.29;99567.28;341160;28;1341;-82
2022/09/19 00:25:38;;;;;;;886.17;831.58;;;;;;;13.59;57.22;99572.47;340199;29;1802;-82
2022/09/19 00:26:01;;;;;;;884.07;829.30;;;;;;;13.58;57.50;99574.25;338753;29;1197;-82
2022/09/19 00:26:12;;;;;;;885.05;830.40;;;;;;;13.57;57.62;99577.81;340469;28;1690;-82
2022/09/19 00:26:22;;;;;;;886.90;832.20;;;;;;;13.56;57.67;99573.47;335101;29;1349;-82
2022/09/19 00:26:33;;;;;;;881.97;827.43;;;;;;;13.57;57.87;99572.56;337314;29;1241;-82
2022/09/19 00:26:45;;;;;;;883.00;828.20;;;;;;;13.59;57.39;99578.59;339954;28;1453;-82
2022/09/19 00:26:55;;;;;;;882.55;827.78;;;;;;;13.62;57.61;99572.31;339775;28;1571;-82
2022/09/19 00:27:06;;;;;;;886.70;831.70;;;;;;;13.61;57.82;99573.25;341167;29;1204;-81
2022/09/19 00:27:19;;;;;;;886.55;831.58;;;;;;;13.62;57.77;99573.16;337592;29;1342;-82
2022/09/19 00:27:29;;;;;;;880.47;825.90;;;;;;;13.62;57.84;99575.78;339591;29;1360;-81
2022/09/19 00:27:39;;;;;;;883.33;828.50;;;;;;;13.62;57.95;99570.53;339933;29;1565;-82
2022/09/19 00:27:50;;;;;;;887.67;832.70;;;;;;;13.61;57.54;99570.59;336646;29;1242;-82
2022/09/19 00:28:00;;;;;;;888.47;833.17;;;;;;;13.59;57.81;99568.06;334574;29;1404;-81
2022/09/19 00:28:11;;;;;;;881.58;826.50;;;;;;;13.59;57.64;99570.69;334311;29;1886;-81
2022/09/19 00:28:25;;;;;;;886.37;831.20;;;;;;;13.58;57.86;99574.25;331398;29;1285;-81
2022/09/19 00:28:36;;;;;;;886.60;831.70;;;;;;;13.58;57.90;99573.41;331480;29;1013;-82
2022/09/19 00:28:46;;;;;;;881.73;827.10;;;;;;;13.58;57.98;99576.88;330600;29;1864;-81
2022/09/19 00:28:57;;;;;;;873.83;819.38;;;;;;;13.59;57.93;99565.44;328683;29;1958;-81
2022/09/19 00:29:08;;;;;;;879.57;824.90;;;;;;;13.57;57.62;99567.28;327424;30;1636;-82
2022/09/19 00:29:18;;;;;;;886.75;831.88;;;;;;;13.57;57.74;99567.28;326770;30;1376;-82
2022/09/19 00:29:29;;;;;;;882.42;827.60;;;;;;;13.54;57.94;99572.72;328361;30;1226;-82
2022/09/19 00:29:41;;;;;;;877.30;822.47;;;;;;;13.54;57.98;99562.19;327262;30;1452;-82
2022/09/19 00:29:52;;;;;;;877.78;823.00;;;;;;;13.55;58.20;99563.91;324982;30;1378;-82
2022/09/19 00:30:02;;;;;;;881.17;826.28;;;;;;;13.54;57.98;99562.19;320800;30;1508;-82
2022/09/19 00:30:13;;;;;;;883.80;828.57;;;;;;;13.56;58.14;99565.59;320084;30;2266;-81
2022/09/19 00:30:23;;;;;;;883.08;827.72;;;;;;;13.55;58.03;99569.16;318553;30;2270;-82
2022/09/19 00:30:38;;;;;;;893.47;837.47;;;;;;;13.54;58.05;99566.59;314732;31;1208;-82
2022/09/19 00:30:48;;;;;;;884.63;829.38;;;;;;;13.53;57.93;99567.53;308897;32;1282;-82
2022/09/19 00:31:00;;;;;;;880.07;825.27;;;;;;;13.52;57.90;99564.06;309857;31;2264;-82
2022/09/19 00:31:17;;;;;;;879.20;824.20;;;;;;;13.56;57.90;99570.00;308983;31;2572;-82
2022/09/19 00:31:28;;;;;;;883.08;828.40;;;;;;;13.54;57.81;99577.97;308468;32;1653;-82
2022/09/19 00:31:38;;;;;;;882.47;827.75;;;;;;;13.53;57.83;99564.91;309425;31;1401;-82
2022/09/19 00:31:49;;;;;;;880.63;825.73;;;;;;;13.52;58.00;99566.69;309436;32;1277;-82
2022/09/19 00:32:00;;;;;;;882.05;827.08;;;;;;;13.52;57.92;99569.31;309233;31;1758;-81
2022/09/19 00:32:15;;;;;;;885.08;830.13;;;;;;;13.53;57.87;99568.38;308357;31;2125;-81
2022/09/19 00:32:26;;;;;;;890.80;835.80;;;;;;;13.54;57.67;99567.47;307954;31;2420;-81
2022/09/19 00:32:37;;;;;;;889.63;834.75;;;;;;;13.53;57.73;99570.16;306125;32;900;-81
2022/09/19 00:32:51;;;;;;;882.58;827.83;;;;;;;13.55;57.80;99569.16;312503;31;1455;-81
2022/09/19 00:33:01;;;;;;;883.33;828.47;;;;;;;13.55;57.59;99569.16;310946;31;3039;-81
2022/09/19 00:33:12;;;;;;;882.42;827.53;;;;;;;13.53;57.78;99565.75;307716;31;2830;-81
2022/09/19 00:33:27;;;;;;;880.40;825.53;;;;;;;13.53;57.77;99564.91;306129;31;2944;-81
2022/09/19 00:33:37;;;;;;;876.85;822.55;;;;;;;13.54;57.68;99571.88;307783;32;2313;-81
2022/09/19 00:33:48;;;;;;;882.38;828.08;;;;;;;13.53;57.56;99568.38;308466;32;1261;-81
2022/09/19 00:33:58;;;;;;;880.80;826.53;;;;;;;13.55;57.41;99568.31;306938;32;2112;-81
2022/09/19 00:34:10;;;;;;;883.55;829.05;;;;;;;13.54;57.55;99572.72;305743;32;2459;-80
2022/09/19 00:34:20;;;;;;;883.88;829.10;;;;;;;13.54;57.38;99569.25;305467;32;1284;-80
2022/09/19 00:34:31;;;;;;;881.60;826.72;;;;;;;13.54;57.50;99570.09;298324;32;2583;-80
2022/09/19 00:34:43;;;;;;;882.80;828.03;;;;;;;13.56;57.51;99570.84;296641;33;3583;-81
2022/09/19 00:34:55;;;;;;;886.00;831.28;;;;;;;13.55;57.54;99568.31;295675;33;3875;-81
2022/09/19 00:35:08;;;;;;;887.67;832.95;;;;;;;13.55;57.51;99563.91;297515;33;1414;-81
2022/09/19 00:35:19;;;;;;;887.05;832.38;;;;;;;13.56;57.38;99570.84;292826;33;1474;-81
2022/09/19 00:35:32;;;;;;;879.67;825.28;;;;;;;13.57;57.71;99567.28;291118;33;3757;-81
2022/09/19 00:35:43;;;;;;;882.85;828.38;;;;;;;13.58;57.25;99574.25;288680;34;4206;-81
2022/09/19 00:35:54;;;;;;;882.47;828.05;;;;;;;13.57;57.67;99567.28;285617;34;3389;-81
2022/09/19 00:36:05;;;;;;;876.53;822.17;;;;;;;13.56;57.61;99565.59;283592;35;1386;-81
2022/09/19 00:36:15;;;;;;;877.95;823.22;;;;;;;13.59;57.24;99564.59;286355;34;3001;-81
2022/09/19 00:36:26;;;;;;;883.43;828.20;;;;;;;13.58;57.08;99571.63;286689;34;4421;-81
2022/09/19 00:36:37;;;;;;;886.97;831.53;;;;;;;13.57;57.19;99567.28;286707;34;1259;-81
2022/09/19 00:36:48;;;;;;;888.55;832.92;;;;;;;13.56;57.43;99570.84;282610;34;1914;-81
2022/09/19 00:36:58;;;;;;;885.38;830.00;;;;;;;13.58;57.28;99569.00;281354;34;6111;-81
2022/09/19 00:37:10;;;;;;;883.45;828.13;;;;;;;13.57;57.54;99569.06;277285;35;5974;-80
2022/09/19 00:37:20;;;;;;;881.53;826.25;;;;;;;13.58;57.44;99566.38;272644;36;1497;-81
2022/09/19 00:37:31;;;;;;;880.92;826.00;;;;;;;13.59;57.39;99570.69;275354;35;5528;-81
2022/09/19 00:37:41;;;;;;;879.47;824.60;;;;;;;13.59;57.65;99567.22;275049;35;6277;-80
2022/09/19 00:37:52;;;;;;;881.05;826.17;;;;;;;13.58;57.67;99569.00;275281;36;1250;-81
2022/09/19 00:38:02;;;;;;;884.20;829.20;;;;;;;13.58;57.94;99568.16;268606;36;5164;-80
2022/09/19 00:38:13;;;;;;;880.63;825.50;;;;;;;13.58;57.57;99563.72;266706;36;5777;-81
2022/09/19 00:40:01;;;;;;;805.21;753.25;;;;;;;13.59;57.70;99575.94;2501301;27;20285;-82
2022/09/19 00:40:11;;;;;;;870.35;816.47;;;;;;;13.57;57.94;99567.28;351681;28;1218;-81
2022/09/19 00:40:21;;;;;;;867.93;814.13;;;;;;;13.57;57.82;99562.03;349087;28;1455;-81
2022/09/19 00:40:32;;;;;;;863.63;809.93;;;;;;;13.57;57.61;99562.03;349223;28;1384;-81
2022/09/19 00:40:42;;;;;;;872.20;818.03;;;;;;;13.57;58.21;99572.56;349386;28;1218;-82
2022/09/19 00:40:53;;;;;;;874.97;820.57;;;;;;;13.57;57.58;99567.28;349365;28;1277;-81
2022/09/19 00:41:05;;;;;;;879.92;825.38;;;;;;;13.57;57.59;99567.28;351823;28;1370;-81
2022/09/19 00:41:18;;;;;;;874.17;819.83;;;;;;;13.61;58.35;99562.72;350291;28;1404;-81
2022/09/19 00:41:28;;;;;;;875.05;820.63;;;;;;;13.58;58.55;99569.00;349486;28;1245;-81
2022/09/19 00:41:39;;;;;;;873.38;818.90;;;;;;;13.59;58.52;99568.06;349619;28;1256;-81
2022/09/19 00:41:50;;;;;;;879.90;825.20;;;;;;;13.60;59.18;99567.13;352137;28;1406;-82
2022/09/19 00:42:00;;;;;;;874.53;819.93;;;;;;;13.57;58.03;99567.28;349285;28;1157;-82
2022/09/19 00:42:22;;;;;;;874.83;820.15;;;;;;;13.53;58.06;99570.16;348866;28;1207;-82
2022/09/19 00:42:34;;;;;;;877.97;823.83;;;;;;;13.54;58.11;99566.59;349293;28;1390;-81
2022/09/19 00:42:44;;;;;;;876.33;822.45;;;;;;;13.51;57.93;99569.41;350563;28;815;-81
2022/09/19 00:42:55;;;;;;;876.57;822.30;;;;;;;13.50;57.70;99568.56;349654;28;1193;-82
2022/09/19 00:43:08;;;;;;;878.00;823.53;;;;;;;13.51;57.50;99566.78;352180;28;1215;-82
2022/09/19 00:43:19;;;;;;;876.35;822.08;;;;;;;13.54;57.67;99577.97;352452;28;1430;-83
2022/09/19 00:43:51;;;;;;;874.95;820.80;;;;;;;13.58;57.36;99571.63;351950;28;871;-83
2022/09/19 00:44:25;;;;;;;878.26;824.38;;;;;;;13.59;57.71;99575.94;343898;28;1461;-82
2022/09/19 00:44:35;;;;;;;877.35;823.35;;;;;;;13.55;57.44;99569.16;340432;28;1419;-82
2022/09/19 00:44:50;;;;;;;881.60;827.43;;;;;;;13.54;57.42;99572.72;342280;28;1293;-82
2022/09/19 00:45:03;;;;;;;884.97;830.78;;;;;;;13.52;57.32;99571.94;344839;28;1427;-82
2022/09/19 00:45:15;;;;;;;883.33;829.03;;;;;;;13.50;57.28;99576.44;343950;28;1379;-82
2022/09/19 00:45:25;;;;;;;885.33;830.88;;;;;;;13.53;57.20;99570.16;344637;28;1315;-82
2022/09/19 00:45:35;;;;;;;883.43;828.77;;;;;;;13.54;57.20;99569.25;345217;28;1192;-82
2022/09/19 00:45:46;;;;;;;882.88;828.10;;;;;;;13.54;57.15;99566.59;343943;28;1246;-82
2022/09/19 00:45:57;;;;;;;882.45;827.70;;;;;;;13.52;57.23;99569.31;345062;28;1315;-82
2022/09/19 00:46:07;;;;;;;886.20;831.70;;;;;;;13.51;56.94;99575.50;339013;29;1274;-81
2022/09/19 00:46:19;;;;;;;883.15;828.78;;;;;;;13.51;57.25;99572.03;339533;29;1376;-82
2022/09/19 00:46:31;;;;;;;882.67;828.30;;;;;;;13.52;57.01;99569.31;337027;29;1446;-81
2022/09/19 00:46:41;;;;;;;883.67;829.28;;;;;;;13.50;57.47;99570.34;337483;29;1548;-82
2022/09/19 00:47:25;;;;;;;883.43;828.80;;;;;;;13.52;57.02;99569.31;341686;28;1305;-81
2022/09/19 00:47:38;;;;;;;879.33;825.28;;;;;;;13.51;56.94;99572.88;342953;28;1057;-82
2022/09/19 00:47:49;;;;;;;876.85;822.70;;;;;;;13.52;56.98;99568.47;341199;29;1478;-82
2022/09/19 00:47:59;;;;;;;879.83;825.45;;;;;;;13.51;56.77;99572.88;337238;29;1314;-82
2022/09/19 00:48:10;;;;;;;879.45;825.05;;;;;;;13.52;56.83;99568.47;334935;29;1435;-82
2022/09/19 00:48:21;;;;;;;877.67;823.42;;;;;;;13.52;56.75;99571.09;331853;29;1455;-82
2022/09/19 00:48:32;;;;;;;876.35;822.03;;;;;;;13.50;56.67;99560.66;330160;29;3863;-82
2022/09/19 00:48:45;;;;;;;873.85;819.40;;;;;;;13.53;56.47;99565.75;332548;29;1660;-82
2022/09/19 00:49:07;;;;;;;877.13;822.33;;;;;;;13.59;58.53;99575.94;327976;30;1934;-82
2022/09/19 00:49:18;;;;;;;875.92;821.75;;;;;;;13.57;57.36;99569.94;324570;30;1010;-82
2022/09/19 00:49:29;;;;;;;875.17;821.17;;;;;;;13.55;57.27;99574.41;329736;29;1222;-82
2022/09/19 00:49:46;;;;;;;872.75;818.58;;;;;;;13.55;57.05;99574.41;329024;30;1154;-82
2022/09/19 00:49:57;;;;;;;876.92;822.60;;;;;;;13.56;57.27;99568.22;326027;30;1525;-82
2022/09/19 00:50:18;;;;;;;885.25;830.55;;;;;;;13.55;57.22;99563.91;322002;30;2031;-82
2022/09/19 00:50:29;;;;;;;887.35;832.85;;;;;;;13.54;57.09;99567.47;319884;30;1553;-82
2022/09/19 00:50:39;;;;;;;884.20;829.90;;;;;;;13.51;57.14;99572.88;321707;30;2009;-82
2022/09/19 00:50:52;;;;;;;881.97;827.55;;;;;;;13.48;57.48;99566.94;324693;30;2134;-82
2022/09/19 00:51:04;;;;;;;879.05;824.50;;;;;;;13.48;57.59;99570.41;325215;30;1462;-82
2022/09/19 00:51:23;;;;;;;873.13;818.90;;;;;;;13.47;57.65;99568.72;323279;30;1743;-82
2022/09/19 00:51:45;;;;;;;870.35;816.35;;;;;;;13.50;56.95;99567.69;323420;30;1319;-82
2022/09/19 00:52:00;;;;;;;879.45;825.47;;;;;;;13.50;56.90;99570.34;322005;30;1704;-83
2022/09/19 00:52:15;;;;;;;881.60;827.30;;;;;;;13.49;56.96;99573.88;318815;30;2070;-82
2022/09/19 00:52:39;;;;;;;879.90;825.80;;;;;;;13.46;56.97;99564.38;321769;30;2296;-82
2022/09/19 00:52:52;;;;;;;872.15;818.53;;;;;;;13.46;56.68;99564.38;318529;30;2674;-82
2022/09/19 00:53:13;;;;;;;877.50;823.53;;;;;;;13.44;56.79;99566.25;319040;31;1321;-82
2022/09/19 00:53:24;;;;;;;882.67;828.67;;;;;;;13.40;57.12;99559.50;316351;31;1735;-82
2022/09/19 00:53:35;;;;;;;883.75;829.67;;;;;;;13.41;57.35;99563.81;310794;31;1419;-82
2022/09/19 00:53:46;;;;;;;883.67;829.50;;;;;;;13.41;56.97;99561.19;310966;31;1408;-82
2022/09/19 00:53:57;;;;;;;880.60;826.43;;;;;;;13.40;57.10;99564.75;312691;31;1922;-82
2022/09/19 00:54:11;;;;;;;872.35;818.35;;;;;;;13.39;56.93;99563.03;310223;31;2074;-82
2022/09/19 00:54:23;;;;;;;869.30;815.38;;;;;;;13.39;56.99;99565.69;310801;31;2500;-82
2022/09/19 00:54:36;;;;;;;872.25;818.15;;;;;;;13.39;56.90;99564.81;304343;32;1730;-82
2022/09/19 00:54:47;;;;;;;876.00;821.50;;;;;;;13.37;56.94;99564.91;310758;31;1424;-82
2022/09/19 00:54:57;;;;;;;882.65;827.90;;;;;;;13.37;57.09;99569.31;309547;31;3028;-82
2022/09/19 00:55:07;;;;;;;886.80;831.53;;;;;;;13.37;57.03;99564.06;306637;31;3546;-82
2022/09/19 00:55:18;;;;;;;888.13;832.88;;;;;;;13.36;57.08;99563.19;307750;32;1381;-82
2022/09/19 00:55:28;;;;;;;885.58;830.42;;;;;;;13.34;56.79;99556.34;309847;31;2987;-82
2022/09/19 00:55:39;;;;;;;888.70;833.57;;;;;;;13.32;56.99;99562.53;306131;32;2155;-82
2022/09/19 00:55:54;;;;;;;886.78;831.88;;;;;;;13.33;57.42;99560.75;302297;32;2153;-82
2022/09/19 00:56:04;;;;;;;884.42;829.45;;;;;;;13.36;57.20;99557.94;297859;32;2913;-82
2022/09/19 00:56:16;;;;;;;878.70;823.80;;;;;;;13.38;57.36;99561.34;301726;32;1237;-82
2022/09/19 00:56:27;;;;;;;877.92;823.08;;;;;;;13.38;57.09;99563.13;298201;32;4065;-82
2022/09/19 00:56:40;;;;;;;877.20;822.53;;;;;;;13.37;57.28;99559.66;296875;32;3318;-82
2022/09/19 00:56:52;;;;;;;878.95;824.30;;;;;;;13.37;57.37;99562.28;297290;32;4401;-82
2022/09/19 00:57:03;;;;;;;872.25;818.03;;;;;;;13.37;57.42;99558.78;293998;33;1347;-81
2022/09/19 00:57:14;;;;;;;874.90;820.47;;;;;;;13.35;57.18;99556.25;299253;32;4555;-81
2022/09/19 00:57:33;;;;;;;872.50;817.95;;;;;;;13.38;57.46;99556.09;296912;33;3592;-82
2022/09/19 00:58:03;;;;;;;879.92;825.00;;;;;;;13.38;57.17;99558.72;293095;33;4035;-82
2022/09/19 00:58:35;;;;;;;867.03;813.10;;;;;;;13.38;57.10;99563.97;289585;33;3096;-83
2022/09/19 00:58:45;;;;;;;885.70;831.58;;;;;;;13.39;56.95;99556.94;284262;34;1294;-80
2022/09/19 00:58:57;;;;;;;887.92;833.17;;;;;;;13.39;57.06;99552.53;281977;34;6063;-80
2022/09/19 00:59:07;;;;;;;879.33;824.63;;;;;;;13.39;57.53;99552.53;279910;34;6488;-80
2022/09/19 00:59:18;;;;;;;880.50;825.80;;;;;;;13.40;57.16;99564.75;280016;35;2292;-82
2022/09/19 00:59:29;;;;;;;879.40;824.55;;;;;;;13.40;57.52;99559.50;278992;35;6408;-82
2022/09/19 00:59:42;;;;;;;878.15;823.25;;;;;;;13.42;57.33;99562.03;274880;35;5107;-83
2022/09/19 00:59:52;;;;;;;880.65;825.90;;;;;;;13.43;57.04;99558.47;273805;35;5427;-80
2022/09/19 01:00:03;;;;;;;886.50;831.75;;;;;;;13.43;57.19;99561.09;276718;35;1250;-82
2022/09/19 01:00:14;;;;;;;885.08;830.38;;;;;;;13.43;56.78;99558.47;274588;35;4862;-82
2022/09/19 01:00:25;;;;;;;880.78;826.25;;;;;;;13.42;57.16;99560.25;274793;35;4850;-82
2022/09/19 01:00:35;;;;;;;880.73;826.10;;;;;;;13.41;57.22;99555.06;270730;35;6518;-82
2022/09/19 01:00:46;;;;;;;883.63;828.97;;;;;;;13.40;57.22;99559.50;270267;36;1378;-82
2022/09/19 01:02:32;;;;;;;814.96;762.71;;;;;;;13.38;57.15;99556.09;2505026;27;20267;-82
2022/09/19 01:02:43;;;;;;;856.90;803.42;;;;;;;13.37;57.31;99548.28;351868;28;1552;-82
2022/09/19 01:02:54;;;;;;;851.90;798.45;;;;;;;13.36;57.50;99552.69;349765;28;1239;-82
2022/09/19 01:03:07;;;;;;;847.05;793.58;;;;;;;13.38;57.30;99550.84;349411;28;1404;-82
2022/09/19 01:03:18;;;;;;;865.33;811.17;;;;;;;13.38;57.36;99550.84;348026;28;801;-82